createdAt,value
2023-01-01T00:04:59.000Z,97036
2023-01-01T00:09:59.000Z,97033
2023-01-01T00:14:59.000Z,97039
2023-01-01T00:19:59.000Z,97030
2023-01-01T00:24:59.000Z,97019
2023-01-01T00:29:59.000Z,97029
2023-01-01T00:34:59.000Z,97033
2023-01-01T00:39:59.000Z,97027
2023-01-01T00:44:59.000Z,97016
2023-01-01T00:49:59.000Z,97020
2023-01-01T00:54:59.000Z,97018
2023-01-01T00:59:59.000Z,97018
2023-01-01T01:04:59.000Z,97029
2023-01-01T01:09:59.000Z,97024
2023-01-01T01:14:59.000Z,97017
2023-01-01T01:19:59.000Z,97012
2023-01-01T01:24:59.000Z,97023
2023-01-01T01:29:59.000Z,97028
2023-01-01T01:34:59.000Z,97023
2023-01-01T01:39:59.000Z,97031
2023-01-01T01:44:59.000Z,97017
2023-01-01T01:49:59.000Z,97014
2023-01-01T01:54:59.000Z,97027
2023-01-01T01:59:59.000Z,97026
2023-01-01T02:04:59.000Z,97038
2023-01-01T02:09:59.000Z,97032
2023-01-01T02:14:59.000Z,97030
2023-01-01T02:19:59.000Z,97033
2023-01-01T02:24:59.000Z,97019
2023-01-01T02:29:59.000Z,97025
2023-01-01T02:34:59.000Z,97020
2023-01-01T02:39:59.000Z,97021
2023-01-01T02:44:59.000Z,97035
2023-01-01T02:49:59.000Z,97043
2023-01-01T02:54:59.000Z,97052
2023-01-01T02:59:59.000Z,97059
2023-01-01T03:04:59.000Z,97058
2023-01-01T03:09:59.000Z,97054
2023-01-01T03:14:59.000Z,97042
2023-01-01T03:19:59.000Z,97047
2023-01-01T03:24:59.000Z,97049
2023-01-01T03:29:59.000Z,97046
2023-01-01T03:34:59.000Z,97056
2023-01-01T03:39:59.000Z,97069
2023-01-01T03:44:59.000Z,97072
2023-01-01T03:49:59.000Z,97068
2023-01-01T03:54:59.000Z,97069
2023-01-01T03:59:59.000Z,97055
2023-01-01T04:04:59.000Z,97062
2023-01-01T04:09:59.000Z,97059
2023-01-01T04:14:59.000Z,97076
2023-01-01T04:19:59.000Z,97089
2023-01-01T04:24:59.000Z,97092
2023-01-01T04:29:59.000Z,97080
2023-01-01T04:34:59.000Z,97066
2023-01-01T04:39:59.000Z,97075
2023-01-01T04:44:59.000Z,97084
2023-01-01T04:49:59.000Z,97076
2023-01-01T04:54:59.000Z,97092
2023-01-01T04:59:59.000Z,97103
2023-01-01T05:04:59.000Z,97093
2023-01-01T05:09:59.000Z,97100
2023-01-01T05:14:59.000Z,97107
2023-01-01T05:19:59.000Z,97108
2023-01-01T05:24:59.000Z,97093
2023-01-01T05:29:59.000Z,97095
2023-01-01T05:34:59.000Z,97096
2023-01-01T05:39:59.000Z,97112
2023-01-01T05:44:59.000Z,97105
2023-01-01T05:49:59.000Z,97118
2023-01-01T05:54:59.000Z,97116
2023-01-01T05:59:59.000Z,97116
2023-01-01T06:04:59.000Z,97106
2023-01-01T06:09:59.000Z,97114
2023-01-01T06:14:59.000Z,97115
2023-01-01T06:19:59.000Z,97121
2023-01-01T06:24:59.000Z,97113
2023-01-01T06:29:59.000Z,97118
2023-01-01T06:34:59.000Z,97129
2023-01-01T06:39:59.000Z,97145
2023-01-01T06:44:59.000Z,97149
2023-01-01T06:49:59.000Z,97145
2023-01-01T06:54:59.000Z,97142
2023-01-01T06:59:59.000Z,97147
2023-01-01T07:04:59.000Z,97152
2023-01-01T07:09:59.000Z,97162
2023-01-01T07:14:59.000Z,97152
2023-01-01T07:19:59.000Z,97159
2023-01-01T07:24:59.000Z,97153
2023-01-01T07:29:59.000Z,97158
2023-01-01T07:34:59.000Z,97162
2023-01-01T07:39:59.000Z,97174
2023-01-01T07:44:59.000Z,97163
2023-01-01T07:49:59.000Z,97164
2023-01-01T07:54:59.000Z,97172
2023-01-01T07:59:59.000Z,97153
2023-01-01T08:04:59.000Z,97138
2023-01-01T08:09:59.000Z,97154
2023-01-01T08:14:59.000Z,97166
2023-01-01T08:19:59.000Z,97169
2023-01-01T08:24:59.000Z,97168
2023-01-01T08:29:59.000Z,97163
2023-01-01T08:34:59.000Z,97170
2023-01-01T08:39:59.000Z,97182
2023-01-01T08:44:59.000Z,97180
2023-01-01T08:49:59.000Z,97176
2023-01-01T08:54:59.000Z,97188
2023-01-01T08:59:59.000Z,97186
2023-01-01T09:04:59.000Z,97193
2023-01-01T09:09:59.000Z,97182
2023-01-01T09:14:59.000Z,97178
2023-01-01T09:19:59.000Z,97181
2023-01-01T09:24:59.000Z,97163
2023-01-01T09:29:59.000Z,97166
2023-01-01T09:34:59.000Z,97178
2023-01-01T09:39:59.000Z,97194
2023-01-01T09:44:59.000Z,97185
2023-01-01T09:49:59.000Z,97184
2023-01-01T09:54:59.000Z,97180
2023-01-01T09:59:59.000Z,97176
2023-01-01T10:04:59.000Z,97167
2023-01-01T10:09:59.000Z,97161
2023-01-01T10:14:59.000Z,97154
2023-01-01T10:19:59.000Z,97154
2023-01-01T10:24:59.000Z,97146
2023-01-01T10:29:59.000Z,97131
2023-01-01T10:34:59.000Z,97127
2023-01-01T10:39:59.000Z,97120
2023-01-01T10:44:59.000Z,97127
2023-01-01T10:49:59.000Z,97117
2023-01-01T10:54:59.000Z,97120
2023-01-01T10:59:59.000Z,97110
2023-01-01T11:04:59.000Z,97108
2023-01-01T11:09:59.000Z,97096
2023-01-01T11:14:59.000Z,97090
2023-01-01T11:19:59.000Z,97090
2023-01-01T11:24:59.000Z,97094
2023-01-01T11:29:59.000Z,97086
2023-01-01T11:34:59.000Z,97074
2023-01-01T11:39:59.000Z,97069
2023-01-01T11:44:59.000Z,97056
2023-01-01T11:49:59.000Z,97040
2023-01-01T11:55:00.000Z,97047
2023-01-01T12:00:00.000Z,97045
2023-01-01T12:05:00.000Z,97038
2023-01-01T12:10:00.000Z,97023
2023-01-01T12:15:00.000Z,97019
2023-01-01T12:20:00.000Z,96999
2023-01-01T12:25:00.000Z,96999
2023-01-01T12:30:00.000Z,96996
2023-01-01T12:35:00.000Z,96988
2023-01-01T12:40:00.000Z,96979
2023-01-01T12:45:00.000Z,96980
2023-01-01T12:50:00.000Z,96965
2023-01-01T12:55:00.000Z,96980
2023-01-01T13:00:00.000Z,96976
2023-01-01T13:05:00.000Z,96963
2023-01-01T13:10:00.000Z,96951
2023-01-01T13:15:00.000Z,96952
2023-01-01T13:20:00.000Z,96953
2023-01-01T13:25:00.000Z,96953
2023-01-01T13:30:00.000Z,96946
2023-01-01T13:35:00.000Z,96943
2023-01-01T13:40:00.000Z,96938
2023-01-01T13:45:00.000Z,96934
2023-01-01T13:50:00.000Z,96936
2023-01-01T13:55:00.000Z,96933
2023-01-01T14:00:00.000Z,96930
2023-01-01T14:05:00.000Z,96934
2023-01-01T14:10:00.000Z,96932
2023-01-01T14:15:00.000Z,96932
2023-01-01T14:20:00.000Z,96934
2023-01-01T14:25:00.000Z,96929
2023-01-01T14:30:00.000Z,96942
2023-01-01T14:35:00.000Z,96947
2023-01-01T14:40:00.000Z,96945
2023-01-01T14:45:00.000Z,96950
2023-01-01T14:50:00.000Z,96953
2023-01-01T14:55:00.000Z,96946
2023-01-01T15:00:00.000Z,96960
2023-01-01T15:05:00.000Z,96956
2023-01-01T15:10:00.000Z,96955
2023-01-01T15:15:00.000Z,96948
2023-01-01T15:20:00.000Z,96960
2023-01-01T15:25:00.000Z,96962
2023-01-01T15:30:00.000Z,96969
2023-01-01T15:35:00.000Z,96959
2023-01-01T15:40:00.000Z,96958
2023-01-01T15:45:00.000Z,96968
2023-01-01T15:50:00.000Z,96968
2023-01-01T15:55:00.000Z,96970
2023-01-01T16:00:00.000Z,96963
2023-01-01T16:05:00.000Z,96970
2023-01-01T16:10:00.000Z,96962
2023-01-01T16:15:00.000Z,96978
2023-01-01T16:20:00.000Z,96961
2023-01-01T16:25:00.000Z,96974
2023-01-01T16:30:00.000Z,96969
2023-01-01T16:35:00.000Z,96968
2023-01-01T16:40:00.000Z,96969
2023-01-01T16:45:00.000Z,96975
2023-01-01T16:50:00.000Z,96970
2023-01-01T16:55:00.000Z,96972
2023-01-01T17:00:00.000Z,96972
2023-01-01T17:05:00.000Z,96967
2023-01-01T17:10:00.000Z,96963
2023-01-01T17:15:00.000Z,96970
2023-01-01T17:20:00.000Z,96966
2023-01-01T17:25:00.000Z,96979
2023-01-01T17:30:00.000Z,96970
2023-01-01T17:35:00.000Z,96968
2023-01-01T17:40:00.000Z,96962
2023-01-01T17:45:00.000Z,96960
2023-01-01T17:50:00.000Z,96968
2023-01-01T17:55:00.000Z,96981
2023-01-01T18:00:00.000Z,96970
2023-01-01T18:05:00.000Z,96974
2023-01-01T18:10:00.000Z,96967
2023-01-01T18:15:00.000Z,96973
2023-01-01T18:20:00.000Z,96970
2023-01-01T18:25:00.000Z,96962
2023-01-01T18:30:00.000Z,96969
2023-01-01T18:35:00.000Z,96968
2023-01-01T18:40:00.000Z,96986
2023-01-01T18:45:00.000Z,96978
2023-01-01T18:50:00.000Z,96958
2023-01-01T18:55:00.000Z,96968
2023-01-01T19:00:00.000Z,96952
2023-01-01T19:05:00.000Z,96956
2023-01-01T19:10:00.000Z,96950
2023-01-01T19:15:00.000Z,96964
2023-01-01T19:20:00.000Z,96962
2023-01-01T19:25:00.000Z,96953
2023-01-01T19:30:00.000Z,96948
2023-01-01T19:35:00.000Z,96957
2023-01-01T19:40:00.000Z,96954
2023-01-01T19:45:00.000Z,96953
2023-01-01T19:50:00.000Z,96954
2023-01-01T19:55:00.000Z,96944
2023-01-01T20:00:00.000Z,96951
2023-01-01T20:05:00.000Z,96937
2023-01-01T20:10:00.000Z,96950
2023-01-01T20:15:00.000Z,96942
2023-01-01T20:20:00.000Z,96947
2023-01-01T20:25:00.000Z,96932
2023-01-01T20:30:00.000Z,96921
2023-01-01T20:35:00.000Z,96924
2023-01-01T20:40:00.000Z,96918
2023-01-01T20:45:00.000Z,96925
2023-01-01T20:50:00.000Z,96917
2023-01-01T20:55:00.000Z,96924
2023-01-01T21:00:00.000Z,96919
2023-01-01T21:05:00.000Z,96921
2023-01-01T21:10:00.000Z,96924
2023-01-01T21:15:00.000Z,96915
2023-01-01T21:20:00.000Z,96904
2023-01-01T21:25:00.000Z,96912
2023-01-01T21:30:00.000Z,96901
2023-01-01T21:35:00.000Z,96896
2023-01-01T21:40:00.000Z,96892
2023-01-01T21:45:00.000Z,96885
2023-01-01T21:50:00.000Z,96894
2023-01-01T21:55:00.000Z,96893
2023-01-01T22:00:00.000Z,96901
2023-01-01T22:05:00.000Z,96902
2023-01-01T22:10:00.000Z,96903
2023-01-01T22:15:00.000Z,96905
2023-01-01T22:20:00.000Z,96908
2023-01-01T22:25:00.000Z,96902
2023-01-01T22:30:00.000Z,96898
2023-01-01T22:35:00.000Z,96910
2023-01-01T22:40:00.000Z,96899
2023-01-01T22:45:00.000Z,96901
2023-01-01T22:50:00.000Z,96907
2023-01-01T22:55:00.000Z,96912
2023-01-01T23:00:00.000Z,96913
2023-01-01T23:05:00.000Z,96917
2023-01-01T23:10:00.000Z,96911
2023-01-01T23:15:00.000Z,96909
2023-01-01T23:20:00.000Z,96907
2023-01-01T23:25:00.000Z,96914
2023-01-01T23:30:00.000Z,96904
2023-01-01T23:35:00.000Z,96891
2023-01-01T23:40:00.000Z,96891
2023-01-01T23:45:00.000Z,96884
2023-01-01T23:50:00.000Z,96895
2023-01-01T23:55:00.000Z,96896
